Time;durP1;ratioP1;P1;durP2;ratioP2;P2;SDS_P1;SDS_P2;PMS_P1;PMS_P2;Temp;Humidity;BMP_temperature;BMP_pressure;BME280_temperature;BME280_humidity;BME280_pressure;Samples;Min_cycle;Max_cycle;Signal;HPM_P1;HPM_P2
2021/09/27 00:00:36;;;;;;;;;11.00;10.00;;;;;18.31;71.40;100800.38;5058213;28;45204;-60
2021/09/27 00:03:02;;;;;;;;;11.75;10.50;;;;;18.28;71.87;100800.75;5058133;28;45382;-60
2021/09/27 00:05:28;;;;;;;;;14.75;12.00;;;;;18.24;71.64;100795.78;5057960;28;45290;-60
2021/09/27 00:07:53;;;;;;;;;11.00;8.25;;;;;18.22;72.01;100797.78;5057995;28;45288;-60
2021/09/27 00:10:27;;;;;;;;;13.25;11.00;;;;;18.22;72.15;100803.13;5058051;28;45470;-60
2021/09/27 00:12:53;;;;;;;;;8.00;7.75;;;;;18.21;72.04;100788.16;5040104;28;45413;-60
2021/09/27 00:15:22;;;;;;;;;7.00;7.00;;;;;18.20;72.21;100793.69;5057787;28;46019;-60
2021/09/27 00:17:47;;;;;;;;;8.00;8.00;;;;;18.19;72.13;100792.03;5058007;28;45387;-60
2021/09/27 00:20:13;;;;;;;;;9.00;8.00;;;;;18.19;71.94;100798.16;5056944;28;68243;-60
2021/09/27 00:22:38;;;;;;;;;10.50;9.00;;;;;18.18;71.86;100799.16;5038860;28;45526;-60
2021/09/27 00:25:04;;;;;;;;;7.75;7.00;;;;;18.16;72.13;100787.88;5057607;28;47413;-59
2021/09/27 00:27:29;;;;;;;;;9.00;9.00;;;;;18.16;71.90;100795.84;5057678;28;45429;-60
2021/09/27 00:29:55;;;;;;;;;9.50;8.50;;;;;18.14;72.08;100784.56;5056681;28;70428;-60
2021/09/27 00:32:20;;;;;;;;;8.25;8.25;;;;;18.13;72.34;100782.91;5057657;28;45377;-60
2021/09/27 00:34:45;;;;;;;;;8.75;7.00;;;;;18.12;72.34;100791.91;5038834;28;63344;-60
2021/09/27 00:37:11;;;;;;;;;9.50;8.25;;;;;18.12;72.29;100789.25;5056918;28;60931;-60
2021/09/27 00:39:37;;;;;;;;;7.00;7.00;;;;;18.13;72.41;100793.56;5057671;28;45328;-60
2021/09/27 00:42:02;;;;;;;;;10.75;8.00;;;;;18.14;72.30;100791.75;5057348;28;46142;-60
2021/09/27 00:44:27;;;;;;;;;10.50;8.50;;;;;18.14;72.46;100784.56;5057462;28;45272;-60
2021/09/27 00:46:53;;;;;;;;;10.25;10.00;;;;;18.15;72.53;100783.56;5056680;28;60946;-60
2021/09/27 00:49:18;;;;;;;;;8.25;8.25;;;;;18.16;72.47;100782.56;5056868;28;60310;-60
2021/09/27 00:51:44;;;;;;;;;9.25;9.00;;;;;18.17;72.44;100788.72;5039360;28;45258;-59
2021/09/27 00:54:14;;;;;;;;;7.00;7.00;;;;;18.15;72.61;100775.59;5022650;28;45452;-60
2021/09/27 00:57:07;;;;;;;;;11.25;10.00;;;;;18.16;72.66;100774.56;5023296;28;45249;-59
2021/09/27 00:59:32;;;;;;;;;7.25;7.25;;;;;18.18;72.68;100785.06;5052348;28;45307;-60
2021/09/27 01:01:58;;;;;;;;;8.50;7.25;;;;;18.19;72.76;100784.03;5021800;28;68392;-60
2021/09/27 01:04:23;;;;;;;;;8.25;7.50;;;;;18.18;73.08;100779.72;5056327;28;65897;-60
2021/09/27 01:06:54;;;;;;;;;8.50;7.75;;;;;18.19;72.77;100781.38;5057239;28;45245;-60
2021/09/27 01:09:23;;;;;;;;;8.25;8.25;;;;;18.20;72.98;100777.72;5057132;28;45387;-59
2021/09/27 01:12:03;;;;;;;;;8.50;8.25;;;;;18.20;73.09;100778.53;5038947;28;46259;-60
2021/09/27 01:14:38;;;;;;;;;8.50;8.50;;;;;18.21;73.00;100772.22;5055310;28;45379;-60
2021/09/27 01:17:12;;;;;;;;;12.75;9.50;;;;;18.22;72.91;100765.88;5039227;28;45457;-59
2021/09/27 01:20:07;;;;;;;;;9.75;7.25;;;;;18.23;72.70;100772.84;5056991;28;45566;-59
2021/09/27 01:23:06;;;;;;;;;10.00;8.00;;;;;18.24;72.86;100760.41;5039462;28;45360;-60
2021/09/27 01:25:51;;;;;;;;;8.00;8.00;;;;;18.25;72.98;100756.72;5025247;28;45396;-60
2021/09/27 01:28:54;;;;;;;;;8.25;8.00;;;;;18.26;73.05;100760.19;5038853;28;45416;-59
2021/09/27 01:31:28;;;;;;;;;9.00;7.50;;;;;18.26;73.12;100754.88;5056797;28;45545;-60
2021/09/27 01:34:10;;;;;;;;;7.25;7.25;;;;;18.27;72.63;100745.91;5037774;28;46491;-60
2021/09/27 01:36:54;;;;;;;;;9.50;9.50;;;;;18.29;72.68;100751.88;5037856;28;45833;-60
2021/09/27 01:39:41;;;;;;;;;9.75;8.75;;;;;18.29;72.94;100751.88;5056782;28;45365;-60
2021/09/27 01:42:15;;;;;;;;;9.00;9.00;;;;;18.29;73.23;100754.53;5022442;28;45364;-60
2021/09/27 01:45:31;;;;;;;;;10.50;10.50;;;;;18.31;72.61;100741.88;5022523;28;45614;-60
2021/09/27 01:48:13;;;;;;;;;14.50;10.25;;;;;18.30;73.04;100743.69;5025554;28;45515;-60
2021/09/27 01:51:13;;;;;;;;;14.75;11.25;;;;;18.30;72.93;100748.19;5038641;28;45403;-59
2021/09/27 01:54:09;;;;;;;;;10.00;10.00;;;;;18.31;73.15;100749.84;5072118;28;45183;-60
2021/09/27 01:56:53;;;;;;;;;10.50;10.50;;;;;18.32;73.25;100746.19;5001794;28;45429;-60
2021/09/27 01:59:42;;;;;;;;;9.00;9.00;;;;;18.31;72.91;100757.81;5022200;28;45252;-60
2021/09/27 02:02:14;;;;;;;;;9.25;9.00;;;;;18.31;73.35;100744.53;5038417;28;45367;-59
2021/09/27 02:05:04;;;;;;;;;9.00;8.50;;;;;18.32;72.78;100746.19;5022233;28;45189;-60
2021/09/27 02:07:31;;;;;;;;;9.50;8.75;;;;;18.32;72.57;100741.66;5056217;28;46217;-60
2021/09/27 02:10:07;;;;;;;;;11.25;11.25;;;;;18.32;72.74;100739.00;5021808;28;45347;-60
2021/09/27 02:12:37;;;;;;;;;11.50;9.75;;;;;18.32;72.72;100735.53;5038043;28;46071;-60
2021/09/27 02:15:12;;;;;;;;;9.50;8.50;;;;;18.34;72.97;100720.22;5022069;28;45388;-60
2021/09/27 02:17:44;;;;;;;;;10.00;9.75;;;;;18.34;72.66;100725.53;5038064;28;46107;-60
2021/09/27 02:20:12;;;;;;;;;11.75;10.00;;;;;18.33;73.04;100718.56;5021732;28;45267;-60
2021/09/27 02:22:42;;;;;;;;;9.00;7.75;;;;;18.33;72.64;100714.06;5038091;28;45312;-60
2021/09/27 02:25:13;;;;;;;;;10.25;10.25;;;;;18.33;72.43;100719.38;5038288;28;45313;-60
2021/09/27 02:27:38;;;;;;;;;10.50;9.75;;;;;18.34;72.64;100706.94;5037860;28;46334;-60
2021/09/27 02:30:04;;;;;;;;;10.00;8.75;;;;;18.33;72.80;100714.06;5021368;28;45297;-60
2021/09/27 02:32:31;;;;;;;;;12.50;10.00;;;;;18.32;72.61;100717.72;5056005;28;45317;-60
2021/09/27 02:35:01;;;;;;;;;9.75;9.00;;;;;18.32;72.69;100714.25;5038055;28;45523;-60
2021/09/27 02:37:40;;;;;;;;;10.00;9.50;;;;;18.30;72.64;100709.09;5021590;28;45365;-59
2021/09/27 02:40:14;;;;;;;;;8.50;8.50;;;;;18.29;72.69;100717.28;5021945;28;45779;-60
2021/09/27 02:42:53;;;;;;;;;13.00;9.00;;;;;18.28;72.49;100705.00;5055966;28;45380;-60
2021/09/27 02:45:19;;;;;;;;;10.00;7.25;;;;;18.28;72.67;100705.00;5039097;28;45519;-60
2021/09/27 02:47:55;;;;;;;;;10.75;9.75;;;;;18.28;73.00;100712.97;5059111;28;45598;-60
2021/09/27 02:50:27;;;;;;;;;8.00;7.75;;;;;18.27;72.80;100711.31;5025144;28;45473;-60
2021/09/27 02:52:54;;;;;;;;;11.75;9.00;;;;;18.26;72.72;100717.66;5059635;28;45277;-60
2021/09/27 02:55:22;;;;;;;;;12.00;10.25;;;;;18.27;72.83;100708.66;5059259;28;45221;-60
2021/09/27 02:58:07;;;;;;;;;8.25;8.00;;;;;18.24;72.81;100716.00;5024563;28;46472;-60
2021/09/27 03:00:40;;;;;;;;;9.75;9.75;;;;;18.23;72.41;100710.88;5041236;28;45304;-60
2021/09/27 03:03:12;;;;;;;;;8.50;8.50;;;;;18.22;72.82;100715.34;5041276;28;45414;-60
2021/09/27 03:05:40;;;;;;;;;10.50;9.75;;;;;18.23;72.56;100713.53;5025027;28;45348;-59
2021/09/27 03:08:21;;;;;;;;;11.50;10.00;;;;;18.21;72.48;100719.00;5058731;28;46334;-60
2021/09/27 03:11:37;;;;;;;;;9.75;9.75;;;;;18.22;72.36;100728.66;5041001;28;45399;-60
2021/09/27 03:14:41;;;;;;;;;8.75;8.75;;;;;18.22;72.52;100727.84;5024874;28;45407;-60
2021/09/27 03:17:34;;;;;;;;;11.50;10.00;;;;;18.22;72.96;100728.66;5027196;28;45316;-60
2021/09/27 03:20:21;;;;;;;;;10.00;8.50;;;;;18.22;72.72;100723.34;5029696;28;46436;-60
2021/09/27 03:23:02;;;;;;;;;11.50;11.50;;;;;18.25;72.32;100708.84;5058486;28;45885;-60
2021/09/27 03:25:46;;;;;;;;;13.50;9.75;;;;;18.23;72.32;100711.69;5040796;28;45386;-60
2021/09/27 03:28:14;;;;;;;;;11.25;9.50;;;;;18.22;72.48;100712.69;5058561;28;45520;-60
2021/09/27 03:31:11;;;;;;;;;11.00;10.00;;;;;18.22;72.15;100728.66;5058593;28;45331;-60
2021/09/27 03:33:39;;;;;;;;;12.00;8.00;;;;;18.22;72.22;100725.19;5033355;28;45807;-60
2021/09/27 03:36:16;;;;;;;;;10.25;8.00;;;;;18.22;72.31;100718.00;5058518;28;45294;-60
2021/09/27 03:38:57;;;;;;;;;9.50;9.50;;;;;18.23;72.01;100716.19;5058698;28;45503;-60
2021/09/27 03:41:56;;;;;;;;;9.75;9.00;;;;;18.23;72.08;100714.34;5040225;28;51124;-60
2021/09/27 03:44:36;;;;;;;;;11.75;9.25;;;;;18.21;72.44;100711.03;5042610;28;45288;-60
2021/09/27 03:47:10;;;;;;;;;11.75;10.00;;;;;18.20;72.21;100713.91;5042426;28;45399;-60
2021/09/27 03:49:46;;;;;;;;;8.50;8.25;;;;;18.18;72.22;100716.72;5058447;28;45295;-60
2021/09/27 03:52:21;;;;;;;;;10.00;10.00;;;;;18.18;72.17;100723.88;5040654;28;46566;-60
2021/09/27 03:55:00;;;;;;;;;8.00;7.00;;;;;18.17;72.01;100715.06;5058367;28;45950;-60
2021/09/27 03:57:47;;;;;;;;;9.75;9.50;;;;;18.17;72.01;100715.06;5057532;28;45274;-59
2021/09/27 04:01:02;;;;;;;;;9.50;8.25;;;;;18.16;72.27;100720.59;5040198;28;45347;-59
2021/09/27 04:04:00;;;;;;;;;8.75;8.75;;;;;18.15;72.20;100726.91;5055718;28;45720;-60
2021/09/27 04:06:47;;;;;;;;;8.00;8.00;;;;;18.15;71.98;100722.41;5043147;28;45367;-60
2021/09/27 04:09:33;;;;;;;;;11.25;10.00;;;;;18.15;72.03;100722.41;5040183;28;45351;-60
2021/09/27 04:12:06;;;;;;;;;10.00;8.75;;;;;18.13;72.18;100713.78;5040071;28;45384;-60
2021/09/27 04:15:05;;;;;;;;;7.50;7.50;;;;;18.14;71.92;100725.25;5023564;28;47215;-60
2021/09/27 04:17:50;;;;;;;;;11.00;8.75;;;;;18.13;72.01;100721.75;5039578;28;45886;-60
2021/09/27 04:20:34;;;;;;;;;10.25;8.25;;;;;18.15;72.11;100725.06;5057889;28;45317;-60
2021/09/27 04:23:22;;;;;;;;;8.50;7.00;;;;;18.15;71.66;100724.25;5057697;28;45225;-60
2021/09/27 04:26:15;;;;;;;;;8.00;8.00;;;;;18.15;72.04;100721.59;5025067;28;45417;-60
2021/09/27 04:29:15;;;;;;;;;8.25;7.00;;;;;18.17;72.07;100725.72;5057616;28;45289;-60
2021/09/27 04:31:45;;;;;;;;;10.00;8.00;;;;;18.17;71.68;100727.56;5042973;28;45297;-59
2021/09/27 04:34:29;;;;;;;;;11.00;9.00;;;;;18.16;72.23;100729.38;5040287;28;45344;-60
2021/09/27 04:36:55;;;;;;;;;7.50;7.50;;;;;18.17;72.18;100730.22;5057397;28;45460;-60
2021/09/27 04:39:21;;;;;;;;;10.00;10.00;;;;;18.17;71.92;100730.22;5023011;28;45305;-60
2021/09/27 04:42:08;;;;;;;;;14.25;9.00;;;;;18.18;72.01;100730.03;5023297;28;45380;-60
2021/09/27 04:44:55;;;;;;;;;10.75;9.25;;;;;18.19;71.81;100723.69;5057505;28;45359;-60
2021/09/27 04:47:44;;;;;;;;;9.00;8.00;;;;;18.18;71.53;100722.03;5042000;28;45864;-59
2021/09/27 04:50:45;;;;;;;;;8.50;7.75;;;;;18.16;71.34;100708.09;5057310;28;45287;-60
2021/09/27 04:53:20;;;;;;;;;8.75;7.75;;;;;18.16;71.13;100702.78;5021941;28;45308;-60
2021/09/27 04:55:53;;;;;;;;;8.75;8.00;;;;;18.14;71.44;100720.75;5057330;28;45311;-60
2021/09/27 04:58:27;;;;;;;;;7.50;7.25;;;;;18.11;71.06;100696.38;5057158;28;45402;-60
2021/09/27 05:01:28;;;;;;;;;7.50;7.50;;;;;18.09;71.78;100707.16;5023203;28;49235;-60
2021/09/27 05:04:02;;;;;;;;;10.00;8.00;;;;;18.09;71.09;100712.47;5042128;28;45236;-60
2021/09/27 05:06:55;;;;;;;;;8.00;8.00;;;;;18.09;71.05;100710.66;5023163;28;45388;-60
2021/09/27 05:09:57;;;;;;;;;7.25;6.75;;;;;18.06;70.75;100692.41;5056978;28;45409;-60
2021/09/27 05:12:59;;;;;;;;;9.00;7.25;;;;;18.05;70.78;100703.22;5057215;28;45466;-60
2021/09/27 05:15:43;;;;;;;;;9.00;7.00;;;;;18.03;70.59;100710.56;5057093;28;45545;-60
2021/09/27 05:18:33;;;;;;;;;9.25;8.00;;;;;18.00;70.86;100697.66;5057106;28;45344;-59
2021/09/27 05:21:29;;;;;;;;;8.00;6.25;;;;;18.00;70.39;100692.34;5056805;28;45558;-60
2021/09/27 05:23:57;;;;;;;;;7.00;7.00;;;;;17.97;70.57;100698.78;5038630;28;45312;-59
2021/09/27 05:26:39;;;;;;;;;8.00;6.50;;;;;17.93;70.83;100689.53;5057023;28;45388;-60
2021/09/27 05:29:24;;;;;;;;;3.25;2.00;;;;;17.91;70.73;100684.41;5039676;28;45356;-60
2021/09/27 05:31:57;;;;;;;;;9.50;9.00;;;;;17.92;70.60;100686.06;5039913;28;45438;-59
2021/09/27 05:34:30;;;;;;;;;6.00;6.00;;;;;17.89;70.70;100670.47;5022808;28;45934;-60
2021/09/27 05:37:11;;;;;;;;;6.50;5.75;;;;;17.88;71.08;100671.47;5039009;28;45434;-60
2021/09/27 05:39:43;;;;;;;;;6.25;5.75;;;;;17.85;71.06;100678.97;5056617;28;45339;-59
2021/09/27 05:42:12;;;;;;;;;8.50;7.75;;;;;17.84;71.02;100666.69;5038675;28;45432;-60
2021/09/27 05:44:58;;;;;;;;;5.25;5.25;;;;;17.80;71.22;100658.25;5038484;28;45395;-60
2021/09/27 05:47:43;;;;;;;;;7.00;7.00;;;;;17.77;70.97;100661.28;5056802;28;45355;-59
2021/09/27 05:50:16;;;;;;;;;6.25;6.25;;;;;17.77;71.19;100674.56;5039581;28;45292;-60
2021/09/27 05:53:00;;;;;;;;;9.00;7.00;;;;;17.77;71.32;100679.88;5038436;28;46379;-59
2021/09/27 05:55:29;;;;;;;;;7.00;6.75;;;;;17.76;71.64;100683.53;5056460;28;45703;-60
2021/09/27 05:57:58;;;;;;;;;6.00;6.00;;;;;17.75;71.53;100679.22;5038490;28;45353;-60
2021/09/27 06:00:35;;;;;;;;;6.00;6.00;;;;;17.76;71.24;100687.00;5022313;28;45543;-60
2021/09/27 06:03:12;;;;;;;;;7.50;6.00;;;;;17.76;71.20;100688.84;5021757;28;46657;-60
2021/09/27 06:05:57;;;;;;;;;7.50;6.00;;;;;17.76;71.70;100691.50;5022322;28;47770;-59
2021/09/27 06:08:53;;;;;;;;;9.50;7.00;;;;;17.74;71.52;100661.63;5037577;28;45279;-60
2021/09/27 06:11:31;;;;;;;;;6.75;6.75;;;;;17.72;71.73;100666.28;5055856;28;45171;-60
2021/09/27 06:13:56;;;;;;;;;23.75;23.25;;;;;17.72;72.03;100663.63;5036637;28;50366;-60
2021/09/27 06:16:41;;;;;;;;;10.50;9.00;;;;;17.73;71.66;100662.63;5037169;28;58907;-60
2021/09/27 06:19:21;;;;;;;;;7.50;7.00;;;;;17.75;71.87;100663.28;5040371;28;45319;-60
2021/09/27 06:22:06;;;;;;;;;5.75;5.75;;;;;17.74;71.61;100682.88;5043079;28;45410;-59
2021/09/27 06:24:34;;;;;;;;;6.50;5.00;;;;;17.75;72.00;100685.34;5041570;28;45384;-60
2021/09/27 06:27:40;;;;;;;;;5.50;4.75;;;;;17.74;71.83;100685.53;5059424;28;45300;-60
2021/09/27 06:30:13;;;;;;;;;8.50;7.25;;;;;17.75;71.84;100668.59;5004268;28;45269;-60
2021/09/27 06:32:50;;;;;;;;;7.75;6.50;;;;;17.75;72.07;100689.84;5041538;28;45635;-60
2021/09/27 06:35:20;;;;;;;;;9.75;7.50;;;;;17.77;71.62;100690.50;5042317;28;46309;-60
2021/09/27 06:37:45;;;;;;;;;8.50;6.00;;;;;17.77;72.45;100693.16;5024776;28;45376;-60
2021/09/27 06:40:11;;;;;;;;;8.75;7.75;;;;;17.77;72.26;100699.28;5041398;28;45355;-60
2021/09/27 06:42:36;;;;;;;;;7.00;6.00;;;;;17.82;71.74;100703.25;5041401;28;45634;-60
2021/09/27 06:45:03;;;;;;;;;7.50;6.50;;;;;17.82;72.14;100698.75;5059198;28;46475;-60
2021/09/27 06:47:28;;;;;;;;;7.00;6.00;;;;;17.85;71.70;100694.91;5058884;28;45369;-60
2021/09/27 06:49:54;;;;;;;;;7.75;5.25;;;;;17.86;71.81;100689.44;5058122;28;65879;-59
2021/09/27 06:52:19;;;;;;;;;6.50;6.50;;;;;17.89;72.00;100688.22;5058266;28;63473;-60
2021/09/27 06:54:44;;;;;;;;;7.00;5.25;;;;;17.89;71.71;100705.03;5058097;28;65878;-60
2021/09/27 06:57:10;;;;;;;;;7.00;5.00;;;;;17.91;72.11;100696.84;5058282;28;64099;-59
2021/09/27 06:59:36;;;;;;;;;9.25;8.00;;;;;17.93;71.93;100692.19;5040928;28;45398;-60
2021/09/27 07:02:01;;;;;;;;;7.25;5.00;;;;;17.94;71.62;100694.66;5024336;28;45564;-59
2021/09/27 07:04:27;;;;;;;;;5.00;5.00;;;;;17.97;71.51;100690.00;5058691;28;45333;-60
2021/09/27 07:06:52;;;;;;;;;6.50;4.00;;;;;17.99;71.64;100703.94;5058359;28;48262;-60
2021/09/27 07:09:18;;;;;;;;;4.50;4.50;;;;;18.00;71.94;100710.94;5058603;28;45529;-59
2021/09/27 07:11:44;;;;;;;;;6.75;5.75;;;;;18.01;71.57;100689.47;5057805;28;66265;-60
2021/09/27 07:14:09;;;;;;;;;5.00;5.00;;;;;18.03;71.69;100686.63;5040128;28;47614;-60
2021/09/27 07:16:35;;;;;;;;;7.00;5.25;;;;;18.04;71.69;100667.84;5057637;28;64050;-59
2021/09/27 07:19:01;;;;;;;;;6.25;5.00;;;;;18.06;71.46;100680.94;5058571;28;45300;-60
2021/09/27 07:21:26;;;;;;;;;7.25;6.50;;;;;18.07;71.63;100680.78;5057768;28;60108;-59
2021/09/27 07:23:52;;;;;;;;;4.50;4.25;;;;;18.08;71.40;100670.94;5058139;28;45326;-60
2021/09/27 07:26:18;;;;;;;;;5.00;5.00;;;;;18.12;71.61;100682.88;5058038;28;58755;-60
2021/09/27 07:28:43;;;;;;;;;5.00;4.50;;;;;18.11;71.73;100689.19;5058582;28;45164;-60
2021/09/27 07:31:09;;;;;;;;;5.00;5.00;;;;;18.12;71.56;100701.50;5073453;28;45207;-59
2021/09/27 07:33:34;;;;;;;;;6.00;4.00;;;;;18.14;71.21;100699.47;5057600;28;45279;-60
2021/09/27 07:36:00;;;;;;;;;6.50;5.25;;;;;18.14;71.22;100694.16;5057470;28;66872;-60
2021/09/27 07:38:26;;;;;;;;;6.00;5.00;;;;;18.13;70.97;100697.81;5058561;28;45430;-59
2021/09/27 07:40:52;;;;;;;;;5.25;5.25;;;;;18.13;71.33;100702.34;5039544;28;62888;-59
2021/09/27 07:43:17;;;;;;;;;6.25;4.75;;;;;18.12;71.51;100706.81;5058189;28;46014;-60
2021/09/27 07:45:42;;;;;;;;;5.50;5.50;;;;;18.13;71.21;100703.13;5039425;28;63776;-60
2021/09/27 07:48:13;;;;;;;;;4.00;4.00;;;;;18.12;71.07;100701.50;5058296;28;45450;-60
2021/09/27 07:50:39;;;;;;;;;5.00;3.00;;;;;18.15;71.04;100695.00;5058255;28;45362;-60
2021/09/27 07:53:04;;;;;;;;;3.00;3.00;;;;;18.14;70.95;100699.47;5058020;28;46258;-60
2021/09/27 07:55:30;;;;;;;;;5.75;4.75;;;;;18.14;70.80;100688.84;5057959;28;45338;-60
2021/09/27 07:57:55;;;;;;;;;5.00;5.00;;;;;18.13;70.91;100689.84;5058127;28;45299;-60
2021/09/27 08:00:21;;;;;;;;;5.75;5.00;;;;;18.12;71.04;100685.53;5057850;28;45221;-60
2021/09/27 08:02:46;;;;;;;;;5.25;5.25;;;;;18.10;71.40;100687.56;5056679;28;46975;-60
2021/09/27 08:05:15;;;;;;;;;4.00;4.00;;;;;18.10;71.73;100700.84;5039568;28;45288;-60
2021/09/27 08:07:40;;;;;;;;;4.25;4.25;;;;;18.13;71.73;100707.66;5057753;28;45319;-59
2021/09/27 08:10:06;;;;;;;;;10.75;5.50;;;;;18.12;71.55;100688.19;5057999;28;45308;-60
2021/09/27 08:12:31;;;;;;;;;5.75;5.00;;;;;18.13;71.76;100695.16;5039772;28;45475;-59
2021/09/27 08:14:57;;;;;;;;;6.00;6.00;;;;;18.14;71.70;100704.78;5057582;28;45428;-60
2021/09/27 08:17:23;;;;;;;;;5.00;5.00;;;;;18.13;71.72;100689.84;5040019;28;45405;-60
2021/09/27 08:19:48;;;;;;;;;6.00;4.00;;;;;18.09;71.72;100691.22;5057285;28;57195;-60
2021/09/27 08:22:13;;;;;;;;;8.00;5.00;;;;;18.09;71.84;100701.84;5056905;28;63386;-60
2021/09/27 08:24:39;;;;;;;;;7.00;5.00;;;;;18.05;71.88;100696.09;5057572;28;45325;-60
2021/09/27 08:27:04;;;;;;;;;4.00;4.00;;;;;18.03;71.51;100699.91;5056945;28;61331;-59
2021/09/27 08:29:30;;;;;;;;;6.00;4.75;;;;;18.02;71.85;100706.25;5056502;28;65212;-60
2021/09/27 08:31:55;;;;;;;;;6.00;5.00;;;;;18.00;72.06;100692.34;5057442;28;46554;-60
2021/09/27 08:34:20;;;;;;;;;6.75;5.00;;;;;18.00;71.93;100700.31;5039415;28;45212;-60
2021/09/27 08:36:48;;;;;;;;;4.25;4.25;;;;;17.97;72.26;100713.94;5057489;28;45427;-60
2021/09/27 08:39:13;;;;;;;;;5.25;5.25;;;;;17.96;72.13;100710.44;5039930;28;45530;-60
2021/09/27 08:41:53;;;;;;;;;8.00;7.00;;;;;17.95;72.35;100704.31;5057357;28;45373;-59
2021/09/27 08:44:31;;;;;;;;;5.75;5.75;;;;;17.93;72.41;100706.31;5022973;28;45735;-59
2021/09/27 08:47:07;;;;;;;;;7.25;5.75;;;;;17.92;72.47;100702.00;5057437;28;45286;-60
2021/09/27 08:49:47;;;;;;;;;7.00;6.00;;;;;17.92;72.57;100691.38;5057353;28;45366;-60
2021/09/27 08:52:14;;;;;;;;;7.00;5.50;;;;;17.93;72.61;100687.69;5056691;28;45448;-59
2021/09/27 08:54:39;;;;;;;;;9.00;6.25;;;;;17.94;72.59;100689.34;5057059;28;45320;-60
2021/09/27 08:57:28;;;;;;;;;7.00;6.00;;;;;17.94;72.35;100686.69;5022687;28;45804;-60
2021/09/27 09:00:12;;;;;;;;;5.50;5.50;;;;;17.93;72.46;100677.06;5057041;28;45415;-59
2021/09/27 09:03:00;;;;;;;;;7.00;5.75;;;;;17.95;73.29;100679.53;5056880;28;46479;-60
2021/09/27 09:05:31;;;;;;;;;7.75;6.00;;;;;17.98;72.60;100681.03;5022846;28;45864;-60
2021/09/27 09:08:06;;;;;;;;;8.25;5.50;;;;;17.98;72.78;100678.38;5039211;28;45264;-60
2021/09/27 09:10:45;;;;;;;;;5.25;4.25;;;;;18.01;72.96;100686.81;5038719;28;45507;-60
2021/09/27 09:13:14;;;;;;;;;5.50;5.50;;;;;18.03;72.80;100671.50;5023465;28;46330;-60
2021/09/27 09:15:39;;;;;;;;;6.00;6.00;;;;;18.04;72.49;100686.47;5056635;28;45399;-60
2021/09/27 09:18:14;;;;;;;;;7.00;6.25;;;;;18.04;72.90;100672.31;5038541;28;45422;-60
2021/09/27 09:21:02;;;;;;;;;9.50;7.25;;;;;18.06;73.01;100665.00;5039721;28;45388;-60
2021/09/27 09:23:52;;;;;;;;;7.00;6.00;;;;;18.09;72.81;100667.28;5039505;28;46239;-60
2021/09/27 09:26:21;;;;;;;;;10.25;7.25;;;;;18.11;73.14;100667.13;5022786;28;45704;-60
2021/09/27 09:28:47;;;;;;;;;6.50;6.00;;;;;18.14;73.17;100667.56;5022435;28;45261;-59
2021/09/27 09:31:18;;;;;;;;;7.00;5.75;;;;;18.14;72.96;100666.75;5056812;28;45289;-60
2021/09/27 09:33:48;;;;;;;;;9.00;7.25;;;;;18.16;72.92;100681.50;5022362;28;46542;-60
2021/09/27 09:36:20;;;;;;;;;6.00;6.00;;;;;18.18;73.16;100673.38;5056446;28;45316;-59
2021/09/27 09:38:46;;;;;;;;;9.75;7.75;;;;;18.19;72.86;100665.19;5056727;28;45293;-60
2021/09/27 09:41:11;;;;;;;;;7.00;6.50;;;;;18.19;72.67;100669.69;5056542;28;45506;-60
2021/09/27 09:43:41;;;;;;;;;14.75;13.25;;;;;18.21;73.14;100662.34;5055963;28;45272;-60
2021/09/27 09:46:28;;;;;;;;;9.00;8.00;;;;;18.22;73.29;100675.47;5056316;28;45371;-60
2021/09/27 09:49:08;;;;;;;;;11.25;8.75;;;;;18.24;73.01;100673.44;5054759;28;45445;-60
2021/09/27 09:51:38;;;;;;;;;6.75;5.75;;;;;18.25;72.84;100663.66;5056101;28;45378;-60
2021/09/27 09:54:17;;;;;;;;;7.00;7.00;;;;;18.28;72.55;100665.09;5055591;28;46553;-60
2021/09/27 09:57:00;;;;;;;;;6.00;6.00;;;;;18.29;72.59;100664.91;5037949;28;45549;-60
2021/09/27 09:59:27;;;;;;;;;8.75;6.75;;;;;18.32;72.78;100666.38;5056365;28;45270;-60
2021/09/27 10:01:54;;;;;;;;;6.25;6.25;;;;;18.35;72.28;100666.03;5037941;28;45354;-62
2021/09/27 10:04:25;;;;;;;;;11.25;8.50;;;;;18.37;72.53;100672.78;5037776;28;45450;-60
2021/09/27 10:07:05;;;;;;;;;6.25;6.25;;;;;18.40;72.61;100660.97;5055978;28;45906;-60
2021/09/27 10:09:55;;;;;;;;;5.00;5.00;;;;;18.43;72.53;100665.09;5038906;28;45459;-60
2021/09/27 10:12:43;;;;;;;;;9.50;7.00;;;;;18.48;72.96;100670.69;5038227;28;45780;-60
2021/09/27 10:15:33;;;;;;;;;8.75;8.75;;;;;18.53;72.62;100673.59;5037846;28;46425;-60
2021/09/27 10:18:22;;;;;;;;;6.00;5.75;;;;;18.60;72.00;100671.03;5041587;28;45186;-60
2021/09/27 10:21:03;;;;;;;;;7.25;6.50;;;;;18.64;72.00;100672.31;5055551;28;45447;-60
2021/09/27 10:23:32;;;;;;;;;6.50;5.00;;;;;18.68;71.63;100671.75;5055314;28;45237;-60
2021/09/27 10:26:13;;;;;;;;;7.50;5.00;;;;;18.70;71.92;100671.56;5037123;28;46411;-60
2021/09/27 10:28:40;;;;;;;;;4.75;4.00;;;;;18.76;72.04;100675.34;5055558;28;45244;-60
2021/09/27 10:31:05;;;;;;;;;6.75;5.50;;;;;18.80;71.36;100666.78;5038199;28;45404;-61
2021/09/27 10:33:33;;;;;;;;;5.25;5.25;;;;;18.83;71.00;100665.56;5037633;28;45741;-61
2021/09/27 10:36:07;;;;;;;;;8.00;4.50;;;;;18.86;70.50;100667.84;5020918;28;45598;-59
2021/09/27 10:38:32;;;;;;;;;4.25;4.25;;;;;18.91;70.37;100668.09;5037933;28;45245;-60
2021/09/27 10:41:05;;;;;;;;;6.00;5.00;;;;;18.92;69.83;100659.13;5052776;28;45463;-60
2021/09/27 10:43:31;;;;;;;;;5.00;4.00;;;;;18.93;70.28;100670.59;5034140;28;45626;-60
2021/09/27 10:45:57;;;;;;;;;6.00;5.00;;;;;18.96;70.31;100670.25;5052680;28;65037;-60
2021/09/27 10:48:23;;;;;;;;;5.25;5.00;;;;;18.96;70.46;100681.72;5035060;28;46029;-60
2021/09/27 10:50:56;;;;;;;;;7.25;5.00;;;;;18.94;70.90;100672.25;5019037;28;45441;-60
2021/09/27 10:53:46;;;;;;;;;6.25;6.25;;;;;18.94;70.55;100678.38;5034935;28;45590;-60
2021/09/27 10:56:35;;;;;;;;;5.00;5.00;;;;;18.95;70.87;100684.56;5055339;28;45559;-60
2021/09/27 10:59:03;;;;;;;;;6.25;5.50;;;;;18.94;71.17;100681.06;5036295;28;45455;-60
2021/09/27 11:01:38;;;;;;;;;5.50;5.50;;;;;18.94;71.38;100689.03;5036492;28;45447;-60
2021/09/27 11:04:10;;;;;;;;;5.00;4.25;;;;;18.94;71.73;100701.53;5055545;28;45352;-61
2021/09/27 11:06:42;;;;;;;;;5.75;5.00;;;;;18.94;71.42;100706.88;5038995;28;45404;-60
2021/09/27 11:09:23;;;;;;;;;6.75;5.25;;;;;18.93;71.57;100708.69;5040449;28;45706;-60
2021/09/27 11:12:08;;;;;;;;;5.75;5.00;;;;;18.90;71.64;100701.06;5042279;28;45528;-61
2021/09/27 11:15:07;;;;;;;;;5.75;4.50;;;;;18.89;72.08;100688.78;5058559;28;45519;-60
2021/09/27 11:17:41;;;;;;;;;6.00;6.00;;;;;18.89;71.74;100693.28;5013641;28;46066;-60
2021/09/27 11:20:12;;;;;;;;;4.00;4.00;;;;;18.88;71.75;100695.09;5039644;28;46072;-60
2021/09/27 11:22:37;;;;;;;;;4.50;4.50;;;;;18.84;71.84;100702.66;5058016;28;45449;-60
2021/09/27 11:25:26;;;;;;;;;6.00;5.00;;;;;18.83;72.13;100701.00;5058343;28;45367;-60
2021/09/27 11:28:39;;;;;;;;;5.75;4.00;;;;;18.82;72.02;100691.38;5052529;28;47071;-60
2021/09/27 11:31:17;;;;;;;;;6.00;5.00;;;;;18.82;71.93;100693.19;5026025;28;45811;-59
2021/09/27 11:33:59;;;;;;;;;5.00;5.00;;;;;18.81;72.02;100699.56;5058534;28;45898;-61
2021/09/27 11:36:27;;;;;;;;;6.00;5.00;;;;;18.78;72.47;100695.41;5040453;28;45404;-60
2021/09/27 11:39:04;;;;;;;;;6.50;5.75;;;;;18.74;72.61;100695.97;5058075;28;45324;-60
2021/09/27 11:41:32;;;;;;;;;6.00;6.00;;;;;18.73;72.71;100724.41;5058190;28;45260;-60
2021/09/27 11:44:10;;;;;;;;;7.00;6.00;;;;;18.73;73.14;100812.25;5057916;28;45505;-60
2021/09/27 11:46:44;;;;;;;;;1.00;0.00;;;;;18.66;68.78;100808.66;5057740;28;45348;-60
2021/09/27 11:49:30;;;;;;;;;0.50;0.00;;;;;18.42;66.38;100791.97;5057758;28;45722;-60
2021/09/27 11:52:27;;;;;;;;;0.00;0.00;;;;;18.20;65.80;100799.00;5057898;28;45323;-60
2021/09/27 11:54:53;;;;;;;;;1.00;0.00;;;;;17.93;65.87;100807.31;5029119;28;45403;-60
2021/09/27 11:57:40;;;;;;;;;1.00;1.00;;;;;17.73;66.41;100808.78;5039879;28;45650;-60
2021/09/27 12:00:09;;;;;;;;;0.00;0.00;;;;;17.57;66.81;100825.69;5057560;28;45405;-60